2014 Monroe Half Marathon

back to results

Nov. 9, 2014

2014 Monroe Half Marathon
Sterling State Park- Monroe, MI
Provided by Everal Race Management


Monroe Half Marathon & 5k Run/Walk

Half Marathon

Age Group Results

November 09, 2014

Results Provided by Everal Race Management

Male Overall Winners
Total
Place Name City Bib No Age Overall Time Pace
1 Noah Dawn Monroe MI 430 16 1 1:17:52 5:57/M


Female Overall Winners
Total
Place Name City Bib No Age Overall Time Pace
1 Nicole Michmerhuizen Ann Arbor MI 576 22 3 1:19:40 6:05/M


Male Masters Winners
Total
Place Name City Bib No Age Overall Time Pace
1 John Olszewski Macomb MI 600 40 6 1:21:44 6:14/M


Female Masters Winners
Total
Place Name City Bib No Age Overall Time Pace
1 Heidi Drallos Commerce Twp MI 442 51 39 1:42:23 7:49/M


Male 14 & under
Total
Place Name City Bib No Age Overall Time Pace
1 Kyle Samluk New Hudson MI 646 13 64 1:47:31 8:12/M
2 Christian Koszka-Lombardo Dundee MI 533 9 88 1:51:55 8:33/M
3 Joshua Berthiaume Taylor MI 375 14 212 2:09:02 9:51/M
4 Aaron Walsh Canton MI 713 13 251 2:14:44 10:17/M


Female 14 & under
Total
Place Name City Bib No Age Overall Time Pace
1 Madeline Kirwin Galena OH 526 14 184 2:05:48 9:36/M


Male 15 to 19
Total
Place Name City Bib No Age Overall Time Pace
1 Steven Stine Sterling Heights M 679 15 7 1:23:11 6:21/M
2 Alex Lytle Milan MI 557 16 18 1:35:10 7:16/M
3 Riley Griffis Milan MI 483 16 20 1:35:48 7:19/M
4 Camden Boston Bloomfield Village 383 15 22 1:35:57 7:19/M
5 Jason Van De Velde Rochester Hills MI 705 15 29 1:39:22 7:35/M
6 Dylan Gray Fraser MI 778 15 31 1:39:42 7:37/M
7 Logan Goering Northville MI 476 15 32 1:40:33 7:41/M
8 Keaton Marks Monroe MI 563 15 35 1:41:28 7:45/M
9 Joe Abel Carleton MI 353 17 69 1:47:51 8:14/M
10 Tommy Brandys Monroe MI 387 17 131 1:58:23 9:02/M
11 Logan Clark Traverse City MI 415 19 274 2:18:29 10:34/M
12 Joshua Doering Canton MI 439 16 327 2:34:15 11:46/M


Female 15 to 19
Total
Place Name City Bib No Age Overall Time Pace
1 Samantha Hill Temperance MI 503 17 42 1:43:40 7:55/M
2 Shelby Burnett Carleton MI 789 17 70 1:47:51 8:14/M
3 Rachel Rosteck Canfield OH 637 16 89 1:52:19 8:34/M
4 Rachael Eby Ann Arbor MI 447 19 115 1:56:50 8:55/M
5 Mandy Farris Monroe MI 769 16 137 1:59:10 9:06/M
6 Sarah Cabala Portage MI 404 19 150 2:00:41 9:13/M
7 Sidney Towalski Monroe MI 700 16 166 2:02:51 9:23/M
8 Haley Nackers Neenah WI 587 18 190 2:06:29 9:39/M
9 Elizabeth Baratta Grosse Pointe MI 368 15 276 2:19:16 10:38/M
10 Adrienne Wasch Northwood OH 716 15 293 2:22:24 10:52/M


Male 20 to 24
Total
Place Name City Bib No Age Overall Time Pace
1 Andrew Barrett Detroit MI 795 23 4 1:20:42 6:10/M
2 Max McIlroy Ann Arbor MI 800 24 10 1:23:45 6:24/M
3 Bryce Woelmer Petersburg MI 733 20 13 1:28:59 6:48/M
4 Christopher Rockwell Ann Arbor MI 633 21 87 1:51:49 8:32/M
5 Jeffrey Czajka Riverview MI 776 21 90 1:52:46 8:36/M
6 Kyle Long Carleton MI 554 21 173 2:03:37 9:26/M
7 Ryan Siegler Canton MI 661 20 202 2:07:23 9:43/M
8 Wesley Schermer Grand Rapids MI 651 21 259 2:16:09 10:24/M
9 Alex Clegg Ann Arbor MI 416 20 260 2:16:09 10:24/M


Female 20 to 24
Total
Place Name City Bib No Age Overall Time Pace
1 Chrissy Zimmerman Ann Arbor MI 751 24 19 1:35:31 7:17/M
2 Kate Hammar South Rockwood MI 488 22 58 1:46:52 8:09/M
3 Colleen Stobinski Temperance MI 680 22 63 1:47:27 8:12/M
4 Melissa Robinson Ann Arbor MI 632 24 128 1:58:11 9:01/M
5 Breana Siljander Ann Arbor MI 663 24 153 2:00:43 9:13/M
6 Elise Hiskens Ann Arbor MI 504 21 163 2:02:36 9:22/M
7 Lindsay Marshall Brownstown MI 567 24 182 2:05:28 9:35/M
8 Madison Eger Oxford OH 448 20 187 2:06:19 9:39/M
9 Samantha Cabala Ann Arbor MI 403 23 189 2:06:28 9:39/M
10 Kelsey Kaczor Rockford MI 516 20 201 2:07:22 9:43/M
11 Kaylie Deyarman Monroe MI 433 20 203 2:07:34 9:44/M
12 Sarah Cusson Ann Arbor MI 425 23 204 2:07:36 9:44/M
13 Raelyn Huss Temperance MI 511 21 232 2:11:47 10:04/M
14 Simone Gonzalez-Nagy Gregory MI 478 21 244 2:13:15 10:10/M
15 Shannon Mischle Ferndale MI 580 22 286 2:20:58 10:46/M
16 Kara Vogelzang Grand Rapids MI 711 20 288 2:20:59 10:46/M
17 Nicole Pidsosny Temperance MI 773 22 296 2:23:49 10:59/M
18 Jessica Jagodzinski Toledo OH 513 23 307 2:28:54 11:22/M
19 Courtney Berg Detroit MI 373 21 324 2:33:25 11:43/M
20 Angelisa Arocha Monroe MI 364 24 326 2:33:37 11:44/M
21 Erika Nielsen New Boston MI 595 20 328 2:34:27 11:47/M
22 Hailey Ivankovics Brownstown MI 512 20 329 2:34:28 11:47/M


Male 25 to 29
Total
Place Name City Bib No Age Overall Time Pace
1 Jon Makhlouf Rochester Hills MI 559 29 12 1:28:55 6:47/M
2 Benjamin Wilson Berkley MI 730 29 30 1:39:29 7:36/M
3 Justin Bommer Trenton MI 381 28 53 1:45:30 8:03/M
4 Patrick Kijowski Toledo OH 523 28 56 1:46:47 8:09/M
5 Jeremy Spry Monroe MI 676 27 92 1:52:55 8:37/M
6 Richard Heinz Detroit MI 495 29 117 1:57:01 8:56/M
7 Ryan Smith Monroe MI 672 28 161 2:02:14 9:20/M
8 Eric Zulewski Monroe MI 748 26 167 2:02:54 9:23/M
9 Mike Pitock Carleton MI 612 28 186 2:06:03 9:37/M
10 Travis Philbeck Monroe MI 608 26 237 2:12:32 10:07/M
11 Dan Fuerstenberg Carleton MI 462 28 247 2:13:43 10:12/M


Female 25 to 29
Total
Place Name City Bib No Age Overall Time Pace
1 Kaci Navarre Trenton MI 590 25 34 1:40:47 7:42/M
2 Nikki Romano Sterling Heights M 636 29 38 1:42:19 7:49/M
3 Jennifer Kerr Taylor MI 772 29 71 1:48:15 8:16/M
4 Kathryn Gabriele Bryan OH 464 29 75 1:49:20 8:21/M
5 Megan Thomas Allen Park MI 697 27 82 1:50:43 8:27/M
6 Laura Pierce Monroe MI 611 28 91 1:52:53 8:37/M
7 Kelly Tunder Cedarburg WI 750 26 99 1:54:26 8:44/M
8 Kelly Stumpmier Madison Heights MI 688 25 103 1:55:27 8:49/M
9 Jennifer Statler Monroe MI 767 26 127 1:58:09 9:01/M
10 Michelle Snay Lansing MI 673 28 134 1:58:58 9:05/M
11 Amy Kuhl Saline MI 536 26 146 2:00:10 9:10/M
12 Kelleigh Lederer Monroe MI 771 28 157 2:01:20 9:16/M
13 Emily Nagy Bryan OH 588 28 160 2:01:31 9:17/M
14 Kristen Thompson Portage MI 698 25 178 2:04:26 9:30/M
15 Heather Brown Monroe MI 391 27 261 2:16:25 10:25/M
16 Andrea Sherzer Ypsilanti MI 656 25 262 2:16:26 10:25/M
17 Danielle Haelewyn Ferndale MI 486 25 295 2:23:35 10:58/M
18 Carrie Reed Monroe MI 626 25 304 2:25:46 11:08/M
19 Rachel Baumann Center Line MI 370 28 316 2:31:10 11:32/M
20 Sara Buffa Belleville MI 395 28 372 3:11:49 14:39/M


Male 30 to 34
Total
Place Name City Bib No Age Overall Time Pace
1 Justin Craig Detroit MI 421 34 2 1:18:13 5:58/M
2 Eddie Keaveny Toledo OH 518 30 5 1:20:51 6:10/M
3 Justin Riffle Millbury OH 799 32 9 1:23:37 6:23/M
4 Kevin Layte Tecumseh ON 545 30 24 1:36:25 7:22/M
5 Nicholas Green Ypsilanti MI 482 33 43 1:43:51 7:56/M
6 Nathan Messer Carleton MI 774 30 48 1:44:51 8:00/M
7 Yin-Hsiu Chen Ann Arbor MI 412 31 62 1:47:25 8:12/M
8 Nathan Hicks Tecumseh MI 501 31 74 1:49:14 8:20/M
9 Andrew Carroll Ann Arbor MI 407 32 80 1:50:24 8:26/M
10 Matthew Kanllen Bryan OH 780 34 93 1:53:11 8:38/M
11 James Burleson IV New Baltimore MI 397 32 112 1:56:33 8:54/M
12 Jason Krzyston 535 32 136 1:59:07 9:06/M
13 Anthony Gray Woodhaven MI 481 32 145 1:59:59 9:10/M
14 Matthew Smith Monroe MI 671 31 158 2:01:22 9:16/M
15 Joshua Williams La Salle MI 728 34 159 2:01:28 9:16/M
16 Jordan Wiedbusch Brighton MI 724 31 185 2:05:59 9:37/M
17 Zackary Stockdale Flat Rock MI 683 34 194 2:06:53 9:41/M
18 Brett Holcomb Dundee MI 506 30 213 2:09:16 9:52/M
19 Jake Haselswerdt Ann Arbor MI 490 34 230 2:11:40 10:03/M
20 Jacob Scherer Toledo OH 650 34 241 2:12:50 10:08/M
21 Kyle Marker Monroe MI 562 33 243 2:13:00 10:09/M
22 Brian Sills Blissfield MI 664 34 302 2:24:59 11:04/M
23 Paul Rhodes Ann Arbor MI 628 32 318 2:31:30 11:34/M
24 Jeff Palazzolo Sterling Heights M 601 32 355 2:50:17 13:00/M


Female 30 to 34
Total
Place Name City Bib No Age Overall Time Pace
1 Lindsay Phillips Bloomfield Hills M 609 34 16 1:31:33 6:59/M
2 Laura Carsner Erie MI 408 34 59 1:47:06 8:11/M
3 Kelly Kinsman Royal Oak MI 525 30 73 1:49:09 8:20/M
4 Tammy Allen Temperance MI 359 33 94 1:53:53 8:42/M
5 Tera Phillips Maumee OH 610 31 101 1:55:18 8:48/M
6 Lori Rushlow Newport MI 641 33 107 1:56:10 8:52/M
7 Margie Clubbs Ottawa Hills OH 417 33 118 1:57:03 8:56/M
8 Krista Woodhouse Richland MI 735 33 125 1:57:57 9:00/M
9 Katie Yates Waterford MI 739 32 129 1:58:19 9:02/M
10 Julie Lambert Berkley MI 538 33 139 1:59:16 9:06/M
11 Sarah Adams Temperance MI 355 34 149 2:00:38 9:13/M
12 Kaija Mattila Commerce MI 568 31 152 2:00:43 9:13/M
13 Taryn Marcero Monroe MI 761 32 155 2:01:18 9:16/M
14 Julie Burger Temperance MI 396 33 191 2:06:34 9:40/M
15 Catherine Stockdale Flat Rock MI 682 34 195 2:06:55 9:41/M
16 Stephanie Bonk Birmingham MI 382 30 205 2:07:40 9:45/M
17 Katie Foster Newport MI 779 32 207 2:08:18 9:48/M
18 Elizabeth Dorris Allen Park MI 441 30 216 2:09:40 9:54/M
19 Jeannie Hernandez Ann Arbor MI 498 31 225 2:11:06 10:00/M
20 Kristine Heck Woodhaven MI 492 34 227 2:11:17 10:01/M
21 Karin Theisen Monroe MI 695 34 228 2:11:19 10:01/M
22 Hannah Nielsen Monroe MI 596 30 246 2:13:43 10:12/M
23 Rahaf Khatib Farmington Hills M 522 31 250 2:14:10 10:15/M
24 Brooke Hammac Monroe MI 487 33 263 2:16:29 10:25/M
25 Stephanie Pritula Plymouth MI 620 31 269 2:17:54 10:32/M
26 Brenna Wheeler Brighton MI 721 34 270 2:18:16 10:33/M
27 Joanne Roehm Grand Rapids MI 634 32 300 2:24:47 11:03/M
28 Natalie Graiver Ann Arbor MI 479 30 303 2:25:03 11:04/M
29 Beth Marshall Brownstown MI 566 30 308 2:29:12 11:23/M
30 Christina Saxon Shelby Twp MI 648 30 309 2:29:24 11:24/M
31 Catherine Zahina Milan MI 742 33 310 2:29:30 11:25/M
32 Kristen Ryder Gibraltar MI 643 34 315 2:30:53 11:31/M
33 Diana Radford Woodhaven MI 621 32 341 2:38:33 12:06/M
34 Sydney Stout Wichita KS 684 30 346 2:40:29 12:15/M
35 Angie Tessman Mt. Pleasant MI 694 34 353 2:46:28 12:42/M
36 Stephanie Leckvarcik Dearborn MI 546 31 358 2:53:11 13:13/M
37 Natalie Lukens Holland OH 555 30 369 3:09:11 14:26/M
38 Amber Williams Canton MI 798 30 370 3:11:27 14:37/M
39 Maria Gines Monroe MI 471 30 380 3:24:23 15:36/M


Male 35 to 39
Total
Place Name City Bib No Age Overall Time Pace
1 Russell Marschall Livonia MI 565 35 14 1:29:14 6:49/M
2 James Feeny Howell MI 459 37 21 1:35:48 7:19/M
3 David Struble Brighton MI 686 35 25 1:36:50 7:24/M
4 Steve Amato Monroe MI 360 38 49 1:44:53 8:00/M
5 Jim Hicks Adrian MI 500 35 55 1:46:22 8:07/M
6 Len Fritz Brownstown MI 461 35 67 1:47:40 8:13/M
7 John Bernat Ann Arbor MI 374 36 76 1:49:59 8:24/M
8 Michael Shafer Monroe MI 655 37 85 1:51:36 8:31/M
9 Mike Scannell New Boston MI 783 38 96 1:53:57 8:42/M
10 Scott Ramsey Toledo OH 623 39 130 1:58:22 9:02/M
11 David Pluck Belle River ON 614 39 138 1:59:16 9:06/M
12 Sean Gilliam Monroe MI 469 38 144 1:59:58 9:09/M
13 Matt Taylor Ypsilanti MI 693 36 188 2:06:21 9:39/M
14 Brian Hughes Gibraltar MI 510 37 219 2:09:56 9:55/M
15 Ben Gruber Monroe MI 484 35 233 2:11:50 10:04/M
16 Chad Lawver Saline MI 544 39 245 2:13:24 10:11/M
17 Jake Laroy Monroe MI 541 36 254 2:15:38 10:21/M
18 Mikhail Zolikoff Ann Arbor MI 744 39 255 2:15:52 10:22/M
19 Nicholas Palmer Belleville MI 602 35 271 2:18:18 10:33/M
20 Dan Sinnott Monroe MI 665 38 282 2:20:28 10:43/M
21 Andrew Zukowski Monroe MI 746 38 287 2:20:58 10:46/M
22 Steve Ryder Gibraltar MI 644 35 314 2:30:53 11:31/M
23 Michael McDonald Monroe MI 570 35 319 2:32:05 11:37/M


Female 35 to 39
Total
Place Name City Bib No Age Overall Time Pace
1 Jennifer Neil Bellevue MI 592 38 57 1:46:51 8:09/M
2 Randa Cain Northville MI 775 37 72 1:48:18 8:16/M
3 Sarah Williams Allen Park MI 729 36 86 1:51:48 8:32/M
4 Danielle Van Fleet Perrysburg OH 706 37 102 1:55:18 8:48/M
5 Mindy Klawonn Temperance MI 528 36 110 1:56:27 8:53/M
6 Chris Hendricks Ann Arbor MI 496 36 126 1:57:58 9:00/M
7 Marie Deline Newport MI 432 37 143 1:59:54 9:09/M
8 Lisa Emanuele Grosse Ile MI 452 35 151 2:00:43 9:13/M
9 Megan Gardam Toledo OH 466 38 156 2:01:18 9:16/M
10 Amy Sulewski Flat Rock MI 690 37 176 2:04:21 9:30/M
11 Tammy Huddlestun Saint Clair Shores 509 36 181 2:05:11 9:33/M
12 Sarah Ersig Toledo OH 453 37 183 2:05:29 9:35/M
13 Suzy Olsen Riverview MI 599 35 242 2:12:57 10:09/M
14 Jennifer Budziak Grosse Ile MI 394 36 264 2:16:47 10:26/M
15 Dawn Clutter Ypsilanti MI 418 39 275 2:18:39 10:35/M
16 Jennifer McKay Newport MI 571 38 277 2:19:57 10:41/M
17 Jessica Chamberlin Madison Heights MI 411 36 289 2:21:06 10:46/M
18 Linda Nichols Indianapolis IN 784 37 294 2:23:12 10:56/M
19 Elizabeth Allen Newport MI 358 37 311 2:30:03 11:27/M
20 Devediah Paramore Southfield MI 603 39 332 2:35:57 11:54/M
21 Lanessia Bryant Detroit MI 393 36 333 2:35:59 11:54/M
22 Darlene Sleeth Amherstburg ON 667 35 360 2:58:25 13:37/M
23 Carole Adams Redford MI 354 39 363 3:02:40 13:57/M
24 Jennifer Korenchuk Royal Oak MI 532 36 371 3:11:46 14:38/M
25 Shannon Russell Manton MI 642 39 376 3:16:22 14:59/M
26 Heather Walsh Canton MI 714 39 377 3:16:28 15:00/M
27 Erika Whitney Sylvania OH 723 39 379 3:23:30 15:32/M
28 Stacey Sordahl Brownstown MI 675 37 381 3:24:25 15:36/M
29 Karen Walker Lambertville MI 712 38 388 3:38:51 16:42/M


Male 40 to 44
Total
Place Name City Bib No Age Overall Time Pace
1 Merlin Elsner Warren MI 451 40 8 1:23:28 6:22/M
2 Todd Small Tecumseh ON 669 43 11 1:26:38 6:37/M
3 Cosmin Facaeanu Warren MI 456 44 15 1:31:18 6:58/M
4 Bassel Atala Livonia MI 366 42 52 1:45:29 8:03/M
5 Jonathan Mehl Canton MI 572 44 65 1:47:34 8:13/M
6 Doug Roberts Newport MI 631 44 68 1:47:45 8:14/M
7 Jeff Bock Temperance MI 378 44 79 1:50:10 8:25/M
8 Scott Czopek Grosse Ile MI 427 41 100 1:54:56 8:46/M
9 Jon Molnar Monroe MI 584 41 114 1:56:47 8:55/M
10 Marlon Glenn Taylor MI 473 44 135 1:59:00 9:05/M
11 Craig Strombom Dearborn MI 685 43 147 2:00:18 9:11/M
12 Carl Ruetz Ravenna MI 639 42 180 2:04:51 9:32/M
13 Joe Zabramski Redford MI 741 40 208 2:08:42 9:49/M
14 Keith Narges Northwood OH 589 43 214 2:09:16 9:52/M
15 Daniel Swallow Monroe MI 691 42 215 2:09:26 9:53/M
16 Peter Hayes Detroit MI 491 40 249 2:14:10 10:15/M
17 Jeffrey Chamberlin Madison Heights MI 410 41 253 2:15:25 10:20/M
18 Mouhammed Joumaa Farmington Hills M 515 40 267 2:17:46 10:31/M
19 Scott Moore Saginaw MI 585 44 292 2:21:48 10:49/M
20 Ryan Akers Saline MI 766 41 297 2:23:56 10:59/M
21 David Korenchuk Royal Oak MI 531 43 306 2:28:26 11:20/M
22 Pankaj Mahajan West Bloomfield MI 558 40 364 3:03:55 14:02/M


Female 40 to 44
Total
Place Name City Bib No Age Overall Time Pace
1 Christine Belcher Berkley MI 372 44 116 1:57:00 8:56/M
2 Dori Durbin Adrian MI 446 42 122 1:57:51 9:00/M
3 Denise Dashner Temperance MI 428 44 123 1:57:52 9:00/M
4 Brenda Sonnenberg Kingsville ON 674 41 140 1:59:17 9:06/M
5 Amy Eckel Holland OH 801 44 148 2:00:25 9:12/M
6 Kristin Johnson Ann Arbor MI 514 44 168 2:03:01 9:23/M
7 Jennifer Milacci New York NY 577 41 171 2:03:14 9:24/M
8 Tami Ramsey Toledo OH 782 40 179 2:04:39 9:31/M
9 Jill Sieler Monroe MI 662 41 192 2:06:48 9:41/M
10 Christine Boston Ypsilanti MI 384 43 198 2:07:05 9:42/M
11 Katy Neumann Saint Clair Shores 594 40 200 2:07:16 9:43/M
12 Stacie Zotkovich Commerce MI 745 41 222 2:10:46 9:59/M
13 Heather Burrows Commerce Twp MI 400 42 223 2:10:47 9:59/M
14 Tracey Herbert Chesterfield MI 497 44 231 2:11:46 10:04/M
15 Rebecca Kirwin Galena OH 527 44 236 2:12:25 10:06/M
16 Keri Rammelsberg Westerville OH 622 43 238 2:12:41 10:08/M
17 Elizabeth Rohr Ann Arbor MI 635 43 257 2:15:56 10:23/M
18 Melissa Samluk New Hudson MI 647 41 268 2:17:48 10:31/M
19 Janet White Maumee OH 722 40 272 2:18:24 10:34/M
20 Amy Elliott Petersburg MI 450 40 278 2:19:57 10:41/M
21 Kristine Komives Ann Arbor MI 530 43 298 2:24:01 11:00/M
22 Dawn Petee Dundee MI 607 42 305 2:25:59 11:09/M
23 Christy Brinkley Gibraltar MI 389 44 312 2:30:26 11:29/M
24 Francesca Kelley Dundee MI 520 44 313 2:30:41 11:30/M
25 Imogen Meloche Windsor ON 573 40 317 2:31:13 11:33/M
26 Leah Mitteer Southgate MI 581 44 320 2:32:05 11:37/M
27 Brandi Zeipekis Dundee MI 743 40 321 2:32:53 11:40/M
28 Heather Doering Canton MI 438 43 334 2:36:09 11:55/M
29 Jillian Leggatt Windsor ON 547 42 342 2:38:35 12:06/M
30 Tina Stock Petersburg MI 681 42 356 2:51:07 13:04/M
31 Melissa Miller Ypsilanti MI 579 40 357 2:51:46 13:07/M
32 Jeannie Drinkert Allen Park MI 443 41 365 3:04:31 14:05/M


Male 45 to 49
Total
Place Name City Bib No Age Overall Time Pace
1 Richard Defazio Ann Arbor MI 431 47 28 1:38:44 7:32/M
2 Gary Williams Canton MI 727 45 45 1:44:11 7:57/M
3 Vincent Hittie Monroe MI 505 45 46 1:44:46 8:00/M
4 Mihai Facaeanu Detroit MI 457 46 78 1:50:07 8:24/M
5 Paul Thoma Monroe MI 696 46 81 1:50:43 8:27/M
6 Steve Rinaldi Monroe MI 629 47 83 1:51:18 8:30/M
7 Ron Reichenbach Troy MI 790 46 95 1:53:57 8:42/M
8 Rob Horn Wyandotte MI 507 45 98 1:54:25 8:44/M
9 Keith Becki New Boston MI 759 46 104 1:55:44 8:50/M
10 Brian Granica Shelby Township MI 480 47 108 1:56:14 8:52/M
11 Joel Whalen Monroe MI 720 46 119 1:57:19 8:57/M
12 David Long Monroe MI 553 45 120 1:57:20 8:57/M
13 RJ Regan Monroe MI 777 47 124 1:57:56 9:00/M
14 Chris Antonelli Monroe MI 362 46 132 1:58:38 9:03/M
15 Marc Scher New York NY 649 46 170 2:03:13 9:24/M
16 Russell Wiese Adrian MI 725 49 177 2:04:21 9:30/M
17 Rob Marla Trenton MI 564 45 196 2:07:00 9:42/M
18 Roger Eger Grosse Pointe MI 449 45 218 2:09:49 9:55/M
19 Keith Lehman Lincoln Park MI 548 45 234 2:12:19 10:06/M
20 Patrick Gannon Sumpter Twp MI 465 47 240 2:12:46 10:08/M
21 Steve Burstall Farmington Hills M 401 48 279 2:20:04 10:42/M
22 Dave Bejot Temperance MI 371 48 284 2:20:45 10:45/M
23 Richard Wright Southfield MI 737 48 322 2:33:06 11:41/M
24 Paul Rapoza Monroe MI 624 46 325 2:33:34 11:43/M
25 Royce Houghton Lambertville MI 508 49 335 2:36:21 11:56/M
26 John Crossman S. Rockwood MI 424 45 337 2:37:42 12:02/M
27 Steve Deyarman Monroe MI 434 48 339 2:37:44 12:02/M


Female 45 to 49
Total
Place Name City Bib No Age Overall Time Pace
1 Kirsten Hehl Monroe MI 494 47 47 1:44:48 8:00/M
2 Laura Lilly Adrian MI 550 45 51 1:45:00 8:01/M
3 Nancy Caldwell Gibraltar MI 405 49 109 1:56:14 8:52/M
4 Daniela Gligor Sylvania OH 474 47 133 1:58:54 9:05/M
5 Anne Crook Royal Oak MI 423 45 142 1:59:41 9:08/M
6 Katherine Stegbauer Southgate MI 678 47 209 2:08:51 9:50/M
7 Robin Kane Avon OH 517 48 210 2:08:53 9:50/M
8 Karen Krolicki Woodhaven MI 534 48 211 2:08:54 9:50/M
9 Barbara Brady Monroe MI 385 46 220 2:10:10 9:56/M
10 Vicki Lynch Monroe MI 556 48 224 2:10:58 10:00/M
11 Michele Cox Howell MI 420 47 226 2:11:12 10:01/M
12 Amy Vines Monroe MI 710 45 239 2:12:42 10:08/M
13 Karen Basile Dundee MI 369 46 248 2:14:08 10:14/M
14 Pamela Roxborough Shelby Township MI 638 46 266 2:17:01 10:28/M
15 Cindy Malak Temperance MI 560 45 283 2:20:44 10:45/M
16 Marcia Polselli Bloomfield Hills M 616 49 336 2:36:24 11:56/M
17 Tammy Liedel Carleton MI 549 45 338 2:37:42 12:02/M
18 Tricia Deyarman Monroe MI 435 45 340 2:37:45 12:03/M
19 Rima Aljundi Shelby Twp MI 357 49 343 2:39:19 12:10/M
20 Sherri Schultz Belleville MI 654 46 348 2:41:17 12:19/M
21 Kelly Ann Plaunt Ddearborn MI 613 49 349 2:41:19 12:19/M
22 Joy Pasquini Trenton MI 606 45 362 3:02:33 13:56/M
23 Lisa Vanisacker Monroe MI 707 46 366 3:06:18 14:13/M
24 Nina Goins Monroe MI 477 47 367 3:06:18 14:13/M
25 Sandra Siegel Woodhaven MI 659 49 368 3:06:46 14:15/M
26 Alicia Upton Petersburg MI 703 47 373 3:12:18 14:41/M
27 Michele Bruck Monroe MI 392 48 374 3:13:48 14:48/M
28 Tida Wasch Northwood OH 718 47 383 3:26:38 15:46/M


Male 50 to 54
Total
Place Name City Bib No Age Overall Time Pace
1 Chris Gibson Ann Arbor MI 468 50 17 1:32:25 7:03/M
2 Thomas Kleman Temperance MI 529 53 26 1:37:08 7:25/M
3 Terry Navarre Trenton MI 591 53 27 1:38:22 7:31/M
4 Scott Siegel Woodhaven MI 660 50 37 1:42:11 7:48/M
5 Jonathan Hill Temperance MI 502 50 40 1:42:53 7:51/M
6 David Dingess Flat Rock MI 436 52 41 1:43:11 7:53/M
7 Bill Long Monroe MI 552 53 44 1:44:01 7:56/M
8 William Tishkoff Ann Arbor MI 699 54 50 1:44:54 8:00/M
9 Chuck Wilson Monroe MI 731 52 113 1:56:44 8:55/M
10 Greg Gasiorowski Toledo OH 467 51 169 2:03:09 9:24/M
11 Dan Goering Northville MI 475 53 197 2:07:00 9:42/M
12 Kirt Berthiaume Taylor MI 376 51 235 2:12:20 10:06/M
13 Michael Wasch Northwood OH 717 51 285 2:20:47 10:45/M


Female 50 to 54
Total
Place Name City Bib No Age Overall Time Pace
1 Patti Rapp Sylvania OH 625 52 141 1:59:19 9:06/M
2 Beth Dumas Franklin MI 444 50 174 2:03:41 9:26/M
3 Kimberly Bodenmller South Rockwood MI 379 51 252 2:14:46 10:17/M
4 Beverly Reinbrechet Sylvania OH 756 51 273 2:18:29 10:34/M
5 Sue Kuzich Monroe MI 537 50 280 2:20:16 10:42/M
6 Jennifer Sullivan Monroe MI 792 54 281 2:20:19 10:43/M
7 Brenda Hershberger Temperance MI 499 53 299 2:24:36 11:02/M
8 Karen Sabuda Riverview MI 645 53 330 2:34:30 11:48/M
9 Heidi Linsenmeyer Monroe MI 551 54 331 2:34:39 11:48/M
10 Jody Mollinger Onsted MI 582 54 345 2:39:40 12:11/M
11 Kathleen Reed Manitou Beach MI 627 50 351 2:44:49 12:35/M
12 Julie Catka Brownstown MI 409 52 378 3:18:43 15:10/M
13 Kathy Mannon Millbury OH 561 53 387 3:38:36 16:41/M


Male 55 to 59
Total
Place Name City Bib No Age Overall Time Pace
1 Victor Sellinger Ann Arbor MI 781 59 23 1:36:13 7:21/M
2 Dave Brown Taylor MI 390 55 33 1:40:45 7:41/M
3 Randy Oleynik Carleton MI 598 55 36 1:42:05 7:48/M
4 Marvin Guitar Harrison Twp MI 485 57 54 1:46:19 8:07/M
5 Gregory Prince Ottawa Hills OH 618 57 60 1:47:09 8:11/M
6 Glenn Czajka Riverview MI 426 57 97 1:54:08 8:43/M
7 Pat Applin Monroe MI 363 57 105 1:55:57 8:51/M
8 Domingo Valadez Temperance MI 704 55 154 2:01:16 9:15/M
9 Patrick Keeney Howell MI 519 56 162 2:02:30 9:21/M
10 William Strimpel Monroe MI 758 55 175 2:04:16 9:29/M
11 Gary Swathell77 Monroe MI 692 59 206 2:08:02 9:46/M
12 J.d. McCoy Sylvania OH 569 56 229 2:11:39 10:03/M
13 Thomas Sionkowski Ferndale MI 666 56 256 2:15:52 10:22/M
14 Douglas Binkley Delta OH 377 56 258 2:16:09 10:24/M
15 David Domingue Carleton MI 440 59 265 2:16:57 10:27/M
16 Joseph Mollinger Onsted MI 583 55 344 2:39:39 12:11/M
17 Michael Diroff Allen Park MI 437 59 350 2:42:32 12:24/M


Female 55 to 59
Total
Place Name City Bib No Age Overall Time Pace
1 Renee Hartford Merlin ON 489 55 61 1:47:23 8:12/M
2 Lynn Stanfield Brighton MI 677 59 106 1:56:07 8:52/M
3 Anne Ruch Toledo OH 797 57 111 1:56:29 8:54/M
4 Jackie Farah Ann Arbor MI 787 56 193 2:06:51 9:41/M
5 Sheila Burrington Erie MI 399 58 221 2:10:41 9:59/M
6 Julie Lawrence Battle Creek MI 543 55 291 2:21:47 10:49/M
7 Donna Melvin Lasalle MI 574 58 352 2:46:09 12:41/M
8 Mary Smith Troy MI 670 59 354 2:46:29 12:43/M
9 Peggy Evanoff Taylor MI 454 56 384 3:29:04 15:58/M
10 Diane Clark Holland OH 414 59 386 3:38:35 16:41/M


Male 60 to 64
Total
Place Name City Bib No Age Overall Time Pace
1 Mike Podracky Toledo OH 615 61 66 1:47:36 8:13/M
2 Jeff Langton South Rockwood MI 539 60 84 1:51:24 8:30/M
3 Howard Brick Ann Arbor MI 388 60 164 2:02:47 9:22/M
4 David Sliwinski Newport MI 668 62 172 2:03:26 9:25/M
5 Nelson Wietholter Allen Park MI 726 63 199 2:07:10 9:42/M
6 Richard Wroblewski Lincoln Park MI 738 63 217 2:09:47 9:54/M
7 Jim Lawrence Battle Creek MI 542 64 290 2:21:46 10:49/M
8 Philip Eversden Britton MI 455 60 301 2:24:47 11:03/M
9 John Kiley Roseville MI 524 63 323 2:33:06 11:41/M


Female 60 to 64
Total
Place Name City Bib No Age Overall Time Pace
1 Duangchai Poopat Monroe MI 617 60 347 2:41:16 12:19/M
2 Judy Zukowski Monroe MI 747 64 359 2:54:21 13:19/M
3 Laura Trombetta Highland MI 701 64 382 3:26:17 15:45/M


Male 65 to 69
Total
Place Name City Bib No Age Overall Time Pace
1 Jack Volker Monroe MI 752 67 121 1:57:29 8:58/M
2 Frank Cody Maumee OH 419 67 165 2:02:47 9:22/M
3 John Furchak Wyandotte MI 463 66 361 2:59:10 13:41/M


Male 70 & up
Total
Place Name City Bib No Age Overall Time Pace
1 John Farah Ann Arbor MI 788 71 77 1:50:02 8:24/M
2 Everett Luoma Adrian MI 791 83 385 3:29:30 16:00/M


Female 70 & up
Total
Place Name City Bib No Age Overall Time Pace
1 Beverly Bomia-Melberg Monroe MI 380 71 375 3:13:49 14:48/M



Monroe Half Marathon & 5k Run/Walk

5k

Age Group Results

November 09, 2014

Results Provided by Everal Race Management

Male Overall Winners
Total
Place Name City Bib No Age Overall Time Pace
1 Bennett Prudhomme South Lyon MI 300 25 1 15:49 5:06/M


Female Overall Winners
Total
Place Name City Bib No Age Overall Time Pace
1 Alex Dutcher Dexter MI 229 22 4 18:51 6:05/M


Male 14 & under
Total
Place Name City Bib No Age Overall Time Pace
1 Chad McCarthy Monroe MI 282 13 10 22:24 7:14/M
2 Joe Wilson Monroe MI 346 14 11 22:25 7:14/M
3 Andrew McCarthy Monroe MI 760 10 14 22:53 7:23/M
4 Kurtis Ford Carleton MI 240 14 15 22:57 7:24/M
5 Nick Keck Monroe MI 263 14 16 23:09 7:28/M
6 Adam Berthiaume Taylor MI 208 12 44 28:21 9:09/M
7 Matthew Dull Rochester Hills MI 228 12 60 30:18 9:46/M
8 Evan Earnest Monroe MI 230 14 87 34:30 11:08/M
9 Gabriel J Verespej Monroe MI 339 10 127 43:57 14:11/M


Female 14 & under
Total
Place Name City Bib No Age Overall Time Pace
1 Kathryn Thornton La Sale MI 333 14 12 22:26 7:14/M
2 Samantha Sieler Monroe MI 314 13 21 24:52 8:01/M
3 Kristen Ford Carleton MI 239 12 36 27:08 8:45/M
4 Abigail Siddall Monroe MI 312 11 43 28:15 9:07/M
5 Delaney Salenbien Monroe MI 309 13 88 34:31 11:08/M
6 Natalie Litra Monroe MI 278 13 92 35:34 11:28/M
7 Sydney Roberts Monroe MI 307 12 96 36:18 11:43/M
8 Autumn Siddall Monroe MI 313 14 97 36:21 11:44/M
9 Carolyn M Taylor Monroe MI 325 13 112 38:59 12:35/M


Male 15 to 19
Total
Place Name City Bib No Age Overall Time Pace
1 Kelvin Kellk Morenci MI 265 16 2 18:09 5:51/M
2 Jarred Crull Brownstown MI 764 15 7 21:26 6:55/M
3 Tyler Robinson Brownstown MI 802 16 22 24:57 8:03/M


Male 20 to 24
Total
Place Name City Bib No Age Overall Time Pace
1 Jeff Grzywinski Monroe MI 786 22 3 18:20 5:55/M


Female 20 to 24
Total
Place Name City Bib No Age Overall Time Pace
1 Samantha Gerlach Toledo OH 243 22 32 26:10 8:26/M
2 Meagan Bolog Milan MI 210 24 45 28:24 9:10/M
3 Rebecca Donaldson Ypsilanti MI 226 24 105 37:36 12:08/M
4 Alleana Bennett Monroe MI 207 21 134 46:48 15:06/M
5 Ashley Fuson Monroe MI 241 24 153 1:47:04 34:32/M


Male 25 to 29
Total
Place Name City Bib No Age Overall Time Pace
1 Jordan Lehr Monroe MI 276 28 33 26:23 8:31/M
2 Steve Spade 319 26 48 28:41 9:15/M
3 Richard Boudrie 212 25 51 29:03 9:22/M
4 Larry Winkie Madison Heights MI 349 28 77 32:47 10:35/M
5 Razvan Fodor Ypsilanti MI 237 27 106 37:36 12:08/M


Female 25 to 29
Total
Place Name City Bib No Age Overall Time Pace
1 Carlea Spade Monroe MI 803 26 35 27:02 8:43/M
2 Kylie Atkinson Carleton MI 204 25 37 27:20 8:49/M
3 Amy Sontag Monroe MI 318 29 39 27:20 8:49/M
4 Ellie Reinbrecht Sylvania OH 757 25 46 28:30 9:12/M
5 Suzanne Gyde Maybee MI 768 26 47 28:33 9:13/M
6 Molly Netter Monroe MI 289 27 62 31:03 10:01/M
7 Kirsten Winek Monroe MI 347 28 83 34:12 11:02/M
8 Jodi Lehr Monroe MI 275 29 91 35:24 11:25/M
9 Tiara Gross Newport MI 250 26 111 38:36 12:27/M
10 Ashley Hagerman Madison Heights MI 252 27 122 42:04 13:34/M
11 Amanda Thomas Southgate MI 327 28 139 49:09 15:51/M


Male 30 to 34
Total
Place Name City Bib No Age Overall Time Pace
1 Nicholas Krzyston Monroe MI 272 30 57 29:36 9:33/M
2 Shawn Poupard Monroe MI 299 33 61 30:56 9:59/M
3 Rob Edgar 231 30 70 32:20 10:26/M
4 Steve Thomas Southgate MI 330 31 138 49:08 15:51/M


Female 30 to 34
Total
Place Name City Bib No Age Overall Time Pace
1 Rene Koons Brownstown MI 267 32 28 25:26 8:12/M
2 Elizabeth Burkndt Newport MI 763 32 49 28:47 9:17/M
3 Leah Tolliver Newport MI 334 34 52 29:04 9:23/M
4 Rachel Krueger Lasalle MI 271 34 65 31:18 10:06/M
5 Amanda Thompson Temperance MI 331 33 66 31:32 10:10/M
6 Catherine Perry Walbridge OH 295 33 74 32:41 10:33/M
7 Karen Sivwright Rochester Hills MI 316 33 78 33:01 10:39/M
8 Crystal Stotz Ida MI 324 30 85 34:24 11:06/M
9 Julianne Dunphy Sylvania OH 749 30 103 37:17 12:02/M
10 Rachel L Reaume Monroe MI 302 34 113 39:24 12:43/M
11 Kellie New Newport MI 290 33 123 42:45 13:47/M


Male 35 to 39
Total
Place Name City Bib No Age Overall Time Pace
1 Jon Wakeman Oak Park MI 794 38 20 24:45 7:59/M
2 Matt Taylor Oak Park MI 793 38 24 25:04 8:05/M
3 Mike Wozniak Monroe MI 350 35 26 25:13 8:08/M
4 Travis Koons 268 35 27 25:24 8:12/M
5 Anthony Colaluca La Salle MI 218 38 31 25:44 8:18/M
6 Jason Simmons Monroe MI 315 37 63 31:17 10:05/M
7 Michael Thompson Temperance MI 332 36 69 31:46 10:15/M
8 Scott Keck Monroe MI 264 39 110 38:30 12:25/M
9 Chad Perry Walbridge OH 296 37 118 41:35 13:25/M


Female 35 to 39
Total
Place Name City Bib No Age Overall Time Pace
1 Laura Cain Brownstown MI 796 35 9 22:02 7:06/M
2 Karla Winick-Ford Carleton MI 348 39 18 24:05 7:46/M
3 Amy Stewart New Boston MI 322 38 19 24:44 7:59/M
4 Ann Thomas Rockwood MI 328 36 41 27:46 8:57/M
5 Julie Lanzesira Monroe MI 273 38 42 28:14 9:06/M
6 Abbey Anteau Temperance MI 203 35 50 28:57 9:20/M
7 Tricia Palmer Monroe MI 293 38 72 32:29 10:29/M
8 Natalie Dotlich Morton Grove IL 227 38 84 34:19 11:04/M
9 Sara Zahradnik 352 35 99 36:28 11:46/M
10 Autumn Cole Monroe MI 220 37 119 41:39 13:26/M
11 Renee Trombley Monroe MI 337 35 124 42:54 13:50/M
12 Adina Allen 201 35 133 46:11 14:54/M
13 Stephanie Ostrowski Petersburg MI 292 39 148 53:37 17:18/M
14 Meghann Crawford Monroe MI 222 35 151 54:24 17:33/M


Male 40 to 44
Total
Place Name City Bib No Age Overall Time Pace
1 Clair Stewart II New Boston MI 323 42 40 27:42 8:56/M
2 Craig Wezner Wyandotte MI 762 44 58 30:07 9:43/M
3 Kevin Ford Carleton MI 238 40 89 34:44 11:12/M
4 Han Bae Monroe MI 205 40 109 38:12 12:19/M


Female 40 to 44
Total
Place Name City Bib No Age Overall Time Pace
1 Julie Crozier Erie MI 806 40 17 23:20 7:32/M
2 Kelley Colaluca La Salle MI 219 41 30 25:39 8:16/M
3 Kelly Weiseman Saline MI 342 43 34 26:25 8:31/M
4 Yvonne Thoma-Patton Oregon OH 326 41 38 27:20 8:49/M
5 Kristen Lawver Saline MI 274 43 81 33:45 10:53/M
6 Rebecca Mansfield Monroe MI 279 42 82 34:02 10:59/M
7 Jennifer Rimanelli Monroe MI 304 41 98 36:24 11:45/M
8 Jennifer Moore Saginaw MI 284 41 104 37:28 12:05/M
9 Denise Keck Monroe MI 262 42 130 44:14 14:16/M
10 Kristy Rivard Monroe MI 306 42 131 45:01 14:31/M
11 Sheri Verespej Monroe MI 340 43 135 47:00 15:10/M


Male 45 to 49
Total
Place Name City Bib No Age Overall Time Pace
1 Matt Hathorne Detroit MI 256 49 5 21:09 6:49/M
2 Scott Neil Bellevue MI 287 45 8 21:55 7:04/M
3 Philip Thomas Rockwood MI 329 45 13 22:39 7:18/M
4 Ken Griffin Monroe MI 249 48 53 29:07 9:24/M
5 Vince Rimanelli Monroe MI 305 49 93 35:53 11:35/M
6 Chris Schneider Adrian MI 805 49 102 37:01 11:56/M


Female 45 to 49
Total
Place Name City Bib No Age Overall Time Pace
1 Jenny Vantanian Toledo OH 754 45 6 21:11 6:50/M
2 Cheryl Naylor Ida MI 286 48 23 25:01 8:04/M
3 Mary Hartson Ferndale MI 255 49 54 29:07 9:24/M
4 Liz Stevens Dundee MI 321 48 56 29:20 9:28/M
5 Kim Goering Northville MI 248 48 59 30:13 9:45/M
6 Renee Stclair Flat Rock MI 320 46 64 31:17 10:05/M
7 Sarah Fellner Carleton MI 236 48 73 32:37 10:31/M
8 Ana De Leon-Murin Toledo OH 224 49 75 32:46 10:34/M
9 Susan Hagood Livonia MI 253 49 94 36:11 11:40/M
10 Faye Markham Monroe MI 280 49 95 36:12 11:41/M
11 Debbie Schneider 310 48 101 37:00 11:56/M
12 Georgiana Declercq Dundee MI 225 49 107 37:59 12:15/M
13 Paula Dawn Monroe MI 223 46 121 41:44 13:28/M
14 Anne Wight Monroe MI 343 47 140 49:15 15:53/M
15 Amy Hempel Ida MI 257 46 143 50:50 16:24/M
16 Darla Fanelli Perrysburg OH 234 48 147 53:04 17:07/M


Male 50 to 54
Total
Place Name City Bib No Age Overall Time Pace
1 Bob Huey Monroe MI 804 50 25 25:08 8:06/M
2 Frank Rabideau Monroe MI 301 53 55 29:16 9:26/M
3 Mike Wight Monroe MI 344 51 67 31:35 10:11/M
4 Patrick Emerson La Salle MI 232 54 90 34:46 11:13/M
5 Mick Toth Monroe MI 336 52 149 53:53 17:23/M


Female 50 to 54
Total
Place Name City Bib No Age Overall Time Pace
1 Rhonda Haener Newport MI 251 51 68 31:41 10:13/M
2 Kerry Bondy Newport MI 211 51 79 33:11 10:42/M
3 Jackie Willis Petersburg MI 345 54 108 38:08 12:18/M
4 Kimberly Kopchick Flat Rock MI 269 51 115 39:40 12:48/M
5 Kathleen Feldt S. Rockwood MI 235 53 116 39:40 12:48/M
6 Mary Kerney-Gayde Monroe MI 521 54 129 44:04 14:13/M
7 Penny Emerson La Salle MI 233 53 136 47:40 15:23/M
8 Sue Smith Monroe MI 317 53 141 49:16 15:54/M
9 Lisa O'Brien Walbridge OH 597 51 145 53:00 17:06/M
10 Darlene Brittain Monroe MI 214 51 152 1:47:03 34:32/M


Male 55 to 59
Total
Place Name City Bib No Age Overall Time Pace
1 Mark McLaughlin Monroe MI 283 58 71 32:25 10:27/M
2 Greg Netter Monroe MI 288 56 86 34:24 11:06/M
3 Gabe Verespej Monroe MI 338 55 128 43:57 14:11/M


Female 55 to 59
Total
Place Name City Bib No Age Overall Time Pace
1 Barbara Giarmo Monroe MI 244 59 76 32:47 10:35/M
2 Cristy Myers Monroe MI 285 58 80 33:14 10:43/M
3 Ann Gerlach Newport MI 242 55 114 39:39 12:47/M
4 Maria Davison Troy MI 785 56 120 41:42 13:27/M
5 Marsha Blessing Blissfield MI 209 56 137 48:29 15:38/M
6 Dawn Wyse Dundee MI 351 55 142 50:48 16:23/M
7 Kim Licata Holland OH 277 57 146 53:02 17:06/M
8 Fran Toth Monroe MI 335 55 150 53:53 17:23/M


Male 60 to 64
Total
Place Name City Bib No Age Overall Time Pace
1 Jeff Gilliland Flat Rock MI 755 60 29 25:37 8:16/M
2 Patrick Coulter Onsted MI 770 63 125 43:19 13:58/M
3 Jim Crawford Monroe MI 422 63 132 45:03 14:32/M


Male 65 to 69
Total
Place Name City Bib No Age Overall Time Pace
1 David Phillips Ida MI 298 65 126 43:32 14:03/M


Female 65 to 69
Total
Place Name City Bib No Age Overall Time Pace
1 Linda Regelin Monroe MI 303 65 100 36:46 11:52/M
2 Mary Bullard Monroe MI 216 65 117 40:21 13:01/M
3 Alice Phillips Ida MI 297 65 144 51:28 16:36/M